Time;durP1;ratioP1;P1;durP2;ratioP2;P2;SDS_P1;SDS_P2;PMS_P1;PMS_P2;Temp;Humidity;BMP_temperature;BMP_pressure;BME280_temperature;BME280_humidity;BME280_pressure;Samples;Min_cycle;Max_cycle;Signal;HPM_P1;HPM_P2
2023/05/29 00:00:43;;;;;;;12.70;12.20;;;15.40;99.90;;;;;;5046616;28;20451;-67
2023/05/29 00:03:10;;;;;;;12.60;12.10;;;15.40;99.90;;;;;;5033799;28;20845;-68
2023/05/29 00:05:39;;;;;;;14.47;13.50;;;15.40;99.90;;;;;;5038398;28;20472;-68
2023/05/29 00:08:06;;;;;;;12.40;11.90;;;15.30;99.90;;;;;;5042028;28;20508;-68
2023/05/29 00:10:35;;;;;;;12.60;12.10;;;15.20;99.90;;;;;;5040191;28;20460;-68
2023/05/29 00:13:03;;;;;;;12.63;12.13;;;15.20;99.90;;;;;;5041220;28;20465;-68
2023/05/29 00:15:30;;;;;;;13.40;12.90;;;15.20;99.90;;;;;;5029867;28;20548;-68
2023/05/29 00:17:57;;;;;;;14.40;13.80;;;15.10;99.90;;;;;;5028520;28;20522;-68
2023/05/29 00:20:24;;;;;;;13.23;12.67;;;15.10;99.90;;;;;;5042642;28;20491;-68
2023/05/29 00:22:53;;;;;;;12.93;12.43;;;15.00;99.90;;;;;;5037466;28;20504;-68
2023/05/29 00:25:20;;;;;;;14.60;13.70;;;15.00;99.90;;;;;;5042763;28;20500;-68
2023/05/29 00:27:47;;;;;;;16.60;15.33;;;14.90;99.90;;;;;;5040267;28;20483;-67
2023/05/29 00:30:14;;;;;;;13.40;12.90;;;14.90;99.90;;;;;;5043951;28;20460;-68
2023/05/29 00:32:42;;;;;;;14.13;13.43;;;14.80;99.90;;;;;;5044893;28;20504;-68
2023/05/29 00:35:09;;;;;;;12.83;12.33;;;14.80;99.90;;;;;;5045232;28;20503;-68
2023/05/29 00:37:37;;;;;;;13.40;12.70;;;14.80;99.90;;;;;;5048455;28;20514;-68
2023/05/29 00:40:07;;;;;;;14.30;13.33;;;14.70;99.90;;;;;;5044326;28;20517;-68
2023/05/29 00:42:34;;;;;;;12.30;11.80;;;14.70;99.90;;;;;;5035597;28;20563;-68
2023/05/29 00:45:02;;;;;;;12.87;12.37;;;14.70;99.90;;;;;;5037110;28;20468;-68
2023/05/29 00:47:30;;;;;;;12.63;12.13;;;14.60;99.90;;;;;;5041614;28;20468;-69
2023/05/29 00:49:58;;;;;;;12.90;12.40;;;14.60;99.90;;;;;;5036654;28;20962;-68
2023/05/29 00:52:25;;;;;;;13.63;13.03;;;14.50;99.90;;;;;;5038343;28;20915;-68
2023/05/29 00:54:53;;;;;;;12.43;11.93;;;14.50;99.90;;;;;;5037383;28;20956;-68
2023/05/29 00:57:22;;;;;;;13.23;12.33;;;14.50;99.90;;;;;;5041823;28;20468;-68
2023/05/29 00:59:51;;;;;;;12.53;12.03;;;14.50;99.90;;;;;;5039637;28;20467;-68
2023/05/29 01:02:19;;;;;;;14.63;13.37;;;14.40;99.90;;;;;;5039404;28;20453;-69
2023/05/29 01:04:47;;;;;;;12.23;11.73;;;14.30;99.90;;;;;;5036508;28;20543;-67
2023/05/29 01:07:15;;;;;;;12.97;12.37;;;14.20;99.90;;;;;;5036120;28;20473;-67
2023/05/29 01:09:43;;;;;;;14.20;13.50;;;14.10;99.90;;;;;;5043674;28;20468;-68
2023/05/29 01:12:25;;;;;;;13.43;12.73;;;14.10;99.90;;;;;;5037641;28;20467;-68
2023/05/29 01:15:05;;;;;;;12.47;11.97;;;14.00;99.90;;;;;;5040247;28;20467;-67
2023/05/29 01:17:43;;;;;;;12.20;11.70;;;13.90;99.90;;;;;;5039443;28;20517;-68
2023/05/29 01:20:23;;;;;;;12.40;11.80;;;13.90;99.90;;;;;;5047623;28;20510;-68
2023/05/29 01:23:09;;;;;;;13.17;12.27;;;13.80;99.90;;;;;;5034921;28;20495;-68
2023/05/29 01:25:49;;;;;;;11.57;11.17;;;13.70;99.90;;;;;;5036917;28;20468;-68
2023/05/29 01:28:22;;;;;;;12.40;11.90;;;13.70;99.90;;;;;;5044804;28;20487;-68
2023/05/29 01:30:51;;;;;;;11.93;11.53;;;13.50;99.90;;;;;;5041830;28;20555;-67
2023/05/29 01:33:18;;;;;;;11.97;11.47;;;13.50;99.90;;;;;;5033661;28;20564;-68
2023/05/29 01:35:45;;;;;;;11.13;10.63;;;13.40;99.90;;;;;;5035585;28;20515;-68
2023/05/29 01:38:12;;;;;;;11.53;11.13;;;13.30;99.90;;;;;;5038715;28;20517;-68
2023/05/29 01:40:39;;;;;;;11.07;10.57;;;13.20;99.90;;;;;;5033537;28;20487;-68
2023/05/29 01:43:08;;;;;;;10.67;10.17;;;13.10;99.90;;;;;;5043011;28;20544;-67
2023/05/29 01:45:37;;;;;;;9.87;9.53;;;13.10;99.90;;;;;;5034805;28;21107;-68
2023/05/29 01:48:05;;;;;;;9.93;9.53;;;13.10;99.90;;;;;;5048228;28;20799;-68
2023/05/29 01:50:32;;;;;;;10.40;9.90;;;13.00;99.90;;;;;;5044039;28;20460;-68
2023/05/29 01:52:59;;;;;;;10.50;10.07;;;12.90;99.90;;;;;;5039863;28;20467;-68
2023/05/29 01:55:26;;;;;;;11.63;9.97;;;12.80;99.90;;;;;;5041747;28;20971;-68
2023/05/29 01:57:54;;;;;;;9.10;8.80;;;12.80;99.90;;;;;;5040698;28;20471;-68
2023/05/29 02:00:21;;;;;;;9.67;9.27;;;12.70;99.90;;;;;;5041122;28;20545;-68
2023/05/29 02:02:50;;;;;;;9.60;9.20;;;12.60;99.90;;;;;;5030338;28;20488;-68
2023/05/29 02:05:18;;;;;;;8.40;8.10;;;12.60;99.90;;;;;;5035574;28;20460;-68
2023/05/29 02:07:45;;;;;;;8.60;8.30;;;12.50;99.90;;;;;;5035068;28;20498;-68
2023/05/29 02:10:12;;;;;;;9.03;8.63;;;12.40;99.90;;;;;;5041374;28;20959;-68
2023/05/29 02:12:39;;;;;;;9.13;8.73;;;12.40;99.90;;;;;;5043591;28;20460;-68
2023/05/29 02:15:07;;;;;;;9.47;9.00;;;12.40;99.90;;;;;;5052017;28;20459;-68
2023/05/29 02:17:34;;;;;;;8.43;8.13;;;12.40;99.90;;;;;;5051744;28;20452;-68
2023/05/29 02:20:04;;;;;;;8.60;8.20;;;12.30;99.90;;;;;;5044982;28;20562;-68
2023/05/29 02:22:31;;;;;;;8.60;8.20;;;12.30;99.90;;;;;;5040595;28;20452;-69
2023/05/29 02:24:58;;;;;;;9.50;8.90;;;12.30;99.90;;;;;;5036706;28;20522;-68
2023/05/29 02:27:25;;;;;;;7.63;7.30;;;12.20;99.90;;;;;;5043223;28;20467;-68
2023/05/29 02:29:52;;;;;;;8.40;8.00;;;12.10;99.90;;;;;;5048232;28;20754;-68
2023/05/29 02:32:19;;;;;;;7.60;7.33;;;12.10;99.90;;;;;;5042017;28;20490;-69
2023/05/29 02:34:46;;;;;;;9.13;8.70;;;12.10;99.90;;;;;;5038259;28;20823;-69
2023/05/29 02:37:15;;;;;;;7.10;6.90;;;12.00;99.90;;;;;;5042364;28;20455;-68
2023/05/29 02:39:42;;;;;;;7.37;7.17;;;12.00;99.90;;;;;;5034962;28;20508;-68
2023/05/29 02:42:09;;;;;;;8.60;8.20;;;12.00;99.90;;;;;;5041005;28;20681;-68
2023/05/29 02:44:35;;;;;;;10.63;8.10;;;12.00;99.90;;;;;;5035841;28;20498;-68
2023/05/29 02:47:02;;;;;;;7.80;7.50;;;11.90;99.90;;;;;;5040549;28;20467;-68
2023/05/29 02:49:29;;;;;;;7.90;7.50;;;11.90;99.90;;;;;;5038510;28;20464;-68
2023/05/29 02:51:57;;;;;;;7.50;7.30;;;11.80;99.90;;;;;;5043736;28;20464;-68
2023/05/29 02:54:26;;;;;;;8.30;8.00;;;11.80;99.90;;;;;;5036624;28;21067;-67
2023/05/29 02:56:53;;;;;;;8.03;7.63;;;11.90;99.90;;;;;;5039844;28;20928;-68
2023/05/29 02:59:20;;;;;;;9.53;8.93;;;11.80;99.90;;;;;;5049173;28;20459;-68
2023/05/29 03:01:48;;;;;;;9.17;8.70;;;11.70;99.90;;;;;;5042763;28;20975;-68
2023/05/29 03:04:17;;;;;;;9.13;8.73;;;11.70;99.90;;;;;;5041366;28;20483;-68
2023/05/29 03:06:45;;;;;;;11.73;10.03;;;11.70;99.90;;;;;;5036138;28;20494;-67
2023/05/29 03:09:12;;;;;;;10.40;9.70;;;11.70;99.90;;;;;;5049387;28;20462;-67
2023/05/29 03:11:40;;;;;;;9.23;8.83;;;11.60;99.90;;;;;;5046097;28;20641;-67
2023/05/29 03:14:09;;;;;;;10.80;9.97;;;11.60;99.90;;;;;;5042913;28;20535;-67
2023/05/29 03:16:38;;;;;;;8.57;8.27;;;11.70;99.90;;;;;;5046046;28;20495;-67
2023/05/29 03:19:05;;;;;;;10.50;9.80;;;11.70;99.90;;;;;;5040699;28;20480;-67
2023/05/29 03:21:32;;;;;;;9.00;8.70;;;11.60;99.90;;;;;;5043757;28;20967;-67
2023/05/29 03:23:59;;;;;;;10.40;9.90;;;11.70;99.90;;;;;;5039758;28;20503;-67
2023/05/29 03:26:28;;;;;;;9.77;9.40;;;11.70;99.90;;;;;;5032376;28;20584;-67
2023/05/29 03:28:57;;;;;;;9.20;8.90;;;11.60;99.90;;;;;;5043069;28;20480;-68
2023/05/29 03:31:23;;;;;;;9.70;9.30;;;11.60;99.90;;;;;;5037082;28;21032;-67
2023/05/29 03:33:50;;;;;;;9.73;9.33;;;11.60;99.90;;;;;;5048519;28;20969;-67
2023/05/29 03:36:19;;;;;;;10.40;10.00;;;11.60;99.90;;;;;;5042964;28;20959;-67
2023/05/29 03:39:01;;;;;;;10.43;9.50;;;11.60;99.90;;;;;;5048194;28;20451;-68
2023/05/29 03:41:29;;;;;;;9.13;8.83;;;11.60;99.90;;;;;;5041171;28;20465;-67
2023/05/29 03:43:59;;;;;;;11.77;11.10;;;11.50;99.90;;;;;;5046828;28;20596;-67
2023/05/29 03:46:27;;;;;;;11.00;10.00;;;11.50;99.90;;;;;;5044388;28;20460;-68
2023/05/29 03:48:53;;;;;;;9.53;9.23;;;11.50;99.90;;;;;;5046910;28;20455;-68
2023/05/29 03:51:21;;;;;;;9.77;9.47;;;11.50;99.90;;;;;;5037448;28;20472;-67
2023/05/29 03:53:49;;;;;;;11.53;10.90;;;11.40;99.90;;;;;;5032338;28;20468;-68
2023/05/29 03:56:17;;;;;;;8.90;8.60;;;11.40;99.90;;;;;;5048271;28;20456;-68
2023/05/29 03:58:44;;;;;;;13.37;12.67;;;11.40;99.90;;;;;;5048140;28;20487;-68
2023/05/29 04:01:12;;;;;;;10.40;10.00;;;11.40;99.90;;;;;;5041183;28;20456;-68
2023/05/29 04:03:39;;;;;;;11.20;10.27;;;11.40;99.90;;;;;;5036795;28;20496;-67
2023/05/29 04:06:08;;;;;;;9.47;9.07;;;11.40;99.90;;;;;;5039305;28;20469;-68
2023/05/29 04:08:35;;;;;;;10.20;9.70;;;11.40;99.90;;;;;;5049724;28;20460;-68
2023/05/29 04:11:03;;;;;;;10.90;10.40;;;11.50;99.90;;;;;;5036299;28;20483;-68
2023/05/29 04:13:30;;;;;;;10.37;9.97;;;11.50;99.90;;;;;;5041541;28;20472;-68
2023/05/29 04:15:57;;;;;;;10.90;10.40;;;11.60;99.90;;;;;;5044650;28;20460;-68
2023/05/29 04:18:25;;;;;;;11.13;10.73;;;11.50;99.90;;;;;;5035912;28;20467;-68
2023/05/29 04:20:53;;;;;;;10.10;9.73;;;11.50;99.90;;;;;;5039957;28;20829;-68
2023/05/29 04:23:20;;;;;;;10.30;9.90;;;11.50;99.90;;;;;;5045113;28;20803;-68
2023/05/29 04:25:50;;;;;;;10.33;9.93;;;11.60;99.90;;;;;;5046228;28;20943;-68
2023/05/29 04:28:21;;;;;;;10.13;9.73;;;11.70;99.90;;;;;;5048359;28;20475;-68
2023/05/29 04:30:48;;;;;;;10.10;9.70;;;11.70;99.90;;;;;;5032314;28;20500;-69
2023/05/29 04:33:15;;;;;;;10.53;10.13;;;11.70;99.90;;;;;;5040440;28;20974;-68
2023/05/29 04:35:43;;;;;;;11.60;10.90;;;11.60;99.90;;;;;;5034142;28;20467;-68
2023/05/29 04:38:10;;;;;;;11.73;10.77;;;11.60;99.90;;;;;;5039541;28;20748;-68
2023/05/29 04:40:37;;;;;;;9.40;9.10;;;11.60;99.90;;;;;;5041312;28;20542;-67
2023/05/29 04:43:05;;;;;;;9.30;9.00;;;11.60;99.90;;;;;;5034255;28;20552;-68
2023/05/29 04:45:32;;;;;;;10.30;9.87;;;11.70;99.90;;;;;;5032014;28;20994;-68
2023/05/29 04:47:58;;;;;;;10.13;9.73;;;11.70;99.90;;;;;;5040096;28;20893;-68
2023/05/29 04:50:27;;;;;;;10.53;10.13;;;11.60;99.90;;;;;;5039741;28;20452;-68
2023/05/29 04:52:55;;;;;;;11.00;10.20;;;11.70;99.90;;;;;;5039476;28;20468;-68
2023/05/29 04:55:22;;;;;;;10.30;9.90;;;11.80;99.90;;;;;;5038085;28;20816;-68
2023/05/29 04:57:49;;;;;;;10.27;9.87;;;11.80;99.90;;;;;;5038719;28;20616;-68
2023/05/29 05:00:18;;;;;;;10.27;9.87;;;11.80;99.90;;;;;;5041383;28;20458;-68
2023/05/29 05:02:45;;;;;;;10.60;9.57;;;11.90;99.90;;;;;;5031249;28;20463;-69
2023/05/29 05:05:12;;;;;;;10.40;9.90;;;11.90;99.90;;;;;;5033306;28;20487;-68
2023/05/29 05:07:39;;;;;;;11.23;10.73;;;12.00;99.90;;;;;;5036223;28;20460;-68
2023/05/29 05:10:08;;;;;;;10.30;9.90;;;12.00;99.90;;;;;;5028093;28;20511;-68
2023/05/29 05:12:36;;;;;;;11.33;10.63;;;12.10;99.90;;;;;;5036036;28;20464;-68
2023/05/29 05:15:04;;;;;;;10.10;9.70;;;12.00;99.90;;;;;;5035450;28;20487;-68
2023/05/29 05:17:31;;;;;;;10.70;10.20;;;12.00;99.90;;;;;;5041095;28;20948;-68
2023/05/29 05:19:58;;;;;;;9.37;9.07;;;12.00;99.90;;;;;;5043603;28;21216;-68
2023/05/29 05:22:26;;;;;;;12.50;10.90;;;12.10;99.90;;;;;;5035861;28;20819;-69
2023/05/29 05:24:54;;;;;;;9.30;9.00;;;12.10;99.90;;;;;;5037055;28;20858;-68
2023/05/29 05:27:23;;;;;;;10.60;10.20;;;12.10;99.90;;;;;;5038593;28;20464;-68
2023/05/29 05:29:50;;;;;;;11.27;10.70;;;12.20;99.90;;;;;;5034880;28;20481;-68
2023/05/29 05:32:18;;;;;;;10.83;10.30;;;12.40;99.90;;;;;;5040077;28;20560;-68
2023/05/29 05:34:45;;;;;;;9.87;9.57;;;12.40;99.90;;;;;;5038729;28;20856;-69
2023/05/29 05:37:12;;;;;;;10.90;10.50;;;12.50;99.90;;;;;;5034662;28;20452;-69
2023/05/29 05:39:39;;;;;;;11.73;11.03;;;12.50;99.90;;;;;;5038689;28;20974;-69
2023/05/29 05:42:06;;;;;;;12.27;11.53;;;12.70;99.90;;;;;;5033647;28;20466;-69
2023/05/29 05:44:34;;;;;;;10.63;10.23;;;12.60;99.90;;;;;;5033835;28;20485;-68
2023/05/29 05:47:04;;;;;;;10.43;10.03;;;12.60;99.90;;;;;;5034135;28;20476;-70
2023/05/29 05:49:32;;;;;;;12.27;11.47;;;12.80;99.90;;;;;;5038954;28;20496;-68
2023/05/29 05:51:59;;;;;;;11.33;10.93;;;12.70;99.90;;;;;;5034920;28;20473;-69
2023/05/29 05:54:25;;;;;;;11.03;10.63;;;12.80;99.90;;;;;;5038889;28;20586;-69
2023/05/29 05:56:52;;;;;;;12.20;11.30;;;12.90;99.90;;;;;;5032534;28;20469;-68
2023/05/29 05:59:19;;;;;;;12.40;11.43;;;13.10;99.90;;;;;;5036307;28;20461;-68
2023/05/29 06:01:48;;;;;;;12.00;11.50;;;13.10;99.90;;;;;;5035357;28;20456;-68
2023/05/29 06:04:16;;;;;;;11.53;11.13;;;13.30;99.90;;;;;;5034090;28;20704;-68
2023/05/29 06:06:43;;;;;;;11.07;10.67;;;13.30;99.90;;;;;;5036364;28;20906;-68
2023/05/29 06:09:11;;;;;;;14.40;13.30;;;13.30;99.90;;;;;;5040750;28;20471;-68
2023/05/29 06:11:38;;;;;;;11.33;10.93;;;13.30;99.90;;;;;;5032015;28;20960;-68
2023/05/29 06:14:06;;;;;;;11.53;11.13;;;13.40;99.90;;;;;;5038006;28;20455;-68
2023/05/29 06:16:32;;;;;;;12.80;12.00;;;13.40;99.90;;;;;;5034474;28;20832;-68
2023/05/29 06:19:01;;;;;;;11.80;11.00;;;13.40;99.90;;;;;;5040036;28;20461;-69
2023/05/29 06:21:28;;;;;;;12.73;12.00;;;13.60;99.90;;;;;;5037617;28;20472;-68
2023/05/29 06:23:55;;;;;;;13.00;12.20;;;13.80;99.90;;;;;;5040616;28;20959;-69
2023/05/29 06:26:22;;;;;;;13.27;12.57;;;13.80;99.90;;;;;;5034252;28;21459;-68
2023/05/29 06:28:48;;;;;;;11.60;11.07;;;13.80;99.90;;;;;;5037121;28;20557;-68
2023/05/29 06:31:16;;;;;;;19.40;12.87;;;13.90;99.90;;;;;;5035911;28;20483;-68
2023/05/29 06:33:43;;;;;;;13.20;12.50;;;13.90;99.90;;;;;;5034883;28;20469;-69
2023/05/29 06:36:11;;;;;;;12.70;12.20;;;13.90;99.90;;;;;;5036993;28;20533;-68
2023/05/29 06:38:39;;;;;;;16.53;15.73;;;14.00;99.90;;;;;;5035365;28;20933;-69
2023/05/29 06:41:06;;;;;;;13.90;12.87;;;14.10;99.90;;;;;;5034901;28;20550;-69
2023/05/29 06:43:33;;;;;;;12.80;12.20;;;14.20;99.90;;;;;;5036095;28;20456;-69
2023/05/29 06:46:00;;;;;;;13.30;12.70;;;14.30;99.90;;;;;;5033129;28;21049;-69
2023/05/29 06:48:27;;;;;;;13.80;13.07;;;14.60;99.90;;;;;;5035287;28;20975;-69
2023/05/29 06:50:54;;;;;;;13.27;12.73;;;14.70;99.90;;;;;;5032258;28;20468;-68
2023/05/29 06:53:22;;;;;;;16.90;13.90;;;14.70;99.90;;;;;;5035377;28;20756;-68
2023/05/29 06:55:49;;;;;;;15.60;14.33;;;14.80;99.90;;;;;;5034481;28;21670;-69
2023/05/29 06:58:16;;;;;;;12.63;12.13;;;14.80;99.90;;;;;;5030999;28;20460;-69
2023/05/29 07:00:43;;;;;;;13.30;12.80;;;14.90;99.90;;;;;;5042941;28;20522;-69
2023/05/29 07:03:10;;;;;;;13.80;13.10;;;14.90;99.90;;;;;;5043261;28;20514;-69
2023/05/29 07:05:38;;;;;;;31.03;14.20;;;14.90;99.90;;;;;;5036238;28;20492;-68
2023/05/29 07:08:07;;;;;;;14.60;12.50;;;14.90;99.90;;;;;;5039866;28;20946;-69
2023/05/29 07:10:35;;;;;;;14.80;13.60;;;15.10;99.90;;;;;;5041564;28;20465;-68
2023/05/29 07:13:03;;;;;;;14.10;13.13;;;15.30;99.90;;;;;;5036678;28;20460;-68
2023/05/29 07:15:30;;;;;;;12.43;11.93;;;15.20;99.90;;;;;;5043626;28;20876;-69
2023/05/29 07:17:58;;;;;;;12.83;12.33;;;15.20;99.90;;;;;;5037546;28;20757;-68
2023/05/29 07:20:25;;;;;;;14.43;13.00;;;15.30;99.90;;;;;;5040398;28;20499;-69
2023/05/29 07:22:51;;;;;;;12.70;12.20;;;15.30;99.90;;;;;;5043431;28;21022;-66
2023/05/29 07:25:19;;;;;;;13.80;12.63;;;15.60;99.90;;;;;;5040352;28;20905;-68
2023/05/29 07:27:48;;;;;;;13.53;12.93;;;15.60;99.90;;;;;;5036376;28;20522;-69
2023/05/29 07:30:16;;;;;;;24.97;12.70;;;15.40;99.90;;;;;;5031758;28;20456;-67
2023/05/29 07:32:42;;;;;;;13.03;12.53;;;15.80;99.90;;;;;;5033393;28;20534;-67
2023/05/29 07:35:09;;;;;;;12.60;12.10;;;15.90;99.90;;;;;;5032964;28;20461;-67
2023/05/29 07:37:36;;;;;;;13.17;12.40;;;16.00;99.90;;;;;;5033391;28;20499;-67
2023/05/29 07:40:05;;;;;;;12.50;12.00;;;16.10;99.90;;;;;;5032221;28;20463;-67
2023/05/29 07:42:33;;;;;;;12.23;11.43;;;16.10;99.90;;;;;;5032876;28;20463;-66
2023/05/29 07:45:01;;;;;;;11.60;11.20;;;15.90;99.90;;;;;;5033217;28;20856;-67
2023/05/29 07:47:28;;;;;;;19.07;13.20;;;16.00;99.90;;;;;;5032548;28;20458;-67
2023/05/29 07:49:56;;;;;;;14.40;13.80;;;16.00;99.90;;;;;;5031638;28;20483;-67
2023/05/29 07:52:23;;;;;;;14.80;13.80;;;16.10;99.90;;;;;;5032821;28;20488;-66
2023/05/29 07:54:50;;;;;;;14.03;12.80;;;16.20;99.90;;;;;;5032764;28;20825;-68
2023/05/29 07:57:17;;;;;;;13.90;13.00;;;16.40;99.90;;;;;;5031525;28;20485;-67
2023/05/29 07:59:44;;;;;;;12.63;12.10;;;16.60;99.90;;;;;;5033067;28;20487;-67
2023/05/29 08:02:13;;;;;;;13.50;12.80;;;16.70;99.90;;;;;;5032761;28;21005;-68
2023/05/29 08:04:40;;;;;;;13.10;12.50;;;16.60;99.90;;;;;;5032346;28;20473;-68
2023/05/29 08:07:08;;;;;;;13.13;12.63;;;16.90;99.90;;;;;;5030897;28;20544;-67
2023/05/29 08:09:35;;;;;;;18.90;13.03;;;17.30;99.90;;;;;;5030825;28;20453;-66
2023/05/29 08:12:03;;;;;;;13.33;12.53;;;17.70;99.90;;;;;;5032896;28;20464;-67
2023/05/29 08:14:29;;;;;;;12.83;12.27;;;17.70;99.90;;;;;;5032241;28;20467;-67
2023/05/29 08:16:56;;;;;;;13.10;12.60;;;18.20;99.90;;;;;;5030729;28;20540;-68
2023/05/29 08:19:25;;;;;;;13.50;13.00;;;18.60;99.90;;;;;;5032347;28;20485;-68
2023/05/29 08:21:53;;;;;;;13.53;12.83;;;19.00;99.90;;;;;;5032698;28;20453;-68
2023/05/29 08:24:21;;;;;;;11.73;11.33;;;19.40;99.90;;;;;;5032031;28;20724;-68
2023/05/29 08:26:47;;;;;;;13.90;12.77;;;19.70;99.90;;;;;;5030394;28;20981;-68
2023/05/29 08:29:15;;;;;;;14.10;13.13;;;19.90;99.90;;;;;;5037114;28;20475;-68
2023/05/29 08:31:42;;;;;;;12.97;12.37;;;19.70;99.90;;;;;;5038617;28;20465;-67
2023/05/29 08:34:10;;;;;;;12.33;11.83;;;19.40;99.90;;;;;;5040268;28;21028;-69
2023/05/29 08:36:40;;;;;;;13.50;12.90;;;19.70;99.90;;;;;;5035197;28;20793;-68
2023/05/29 08:39:07;;;;;;;13.40;12.50;;;20.10;99.90;;;;;;5039946;28;20495;-68
2023/05/29 08:41:43;;;;;;;12.90;12.30;;;20.60;99.90;;;;;;5040970;28;20464;-68
2023/05/29 08:44:15;;;;;;;13.03;12.33;;;20.60;99.90;;;;;;5040810;28;20517;-68
2023/05/29 08:46:42;;;;;;;12.63;12.13;;;20.60;99.90;;;;;;5040691;28;20492;-68
2023/05/29 08:49:16;;;;;;;13.00;12.30;;;20.00;99.90;;;;;;5030536;28;20522;-68
2023/05/29 08:51:50;;;;;;;13.30;12.70;;;20.30;99.90;;;;;;5036481;28;20572;-68
2023/05/29 08:54:18;;;;;;;13.67;13.07;;;20.30;99.90;;;;;;5031667;28;20502;-68
2023/05/29 08:56:45;;;;;;;12.70;12.20;;;20.60;99.90;;;;;;5039219;28;21051;-68
2023/05/29 08:59:12;;;;;;;12.47;11.97;;;20.40;99.90;;;;;;5034618;28;20460;-68
2023/05/29 09:01:40;;;;;;;15.73;13.33;;;21.20;99.90;;;;;;5039250;28;20468;-68
2023/05/29 09:04:08;;;;;;;14.53;13.83;;;21.50;99.90;;;;;;5043939;28;20509;-68
2023/05/29 09:06:35;;;;;;;12.57;12.07;;;21.60;99.90;;;;;;5036633;28;20496;-68
2023/05/29 09:09:05;;;;;;;14.03;12.80;;;21.80;99.90;;;;;;5035363;28;20557;-68
2023/05/29 09:11:32;;;;;;;13.90;13.30;;;22.00;99.90;;;;;;5038455;28;20471;-68
2023/05/29 09:14:02;;;;;;;12.80;12.30;;;22.10;99.90;;;;;;5037786;28;20546;-68
2023/05/29 09:16:28;;;;;;;14.03;13.33;;;22.10;99.90;;;;;;5035312;28;20963;-68
2023/05/29 09:19:06;;;;;;;13.60;12.83;;;21.80;99.90;;;;;;5031300;28;20464;-68
2023/05/29 09:21:34;;;;;;;15.23;14.00;;;21.50;99.90;;;;;;5034633;28;20487;-68
2023/05/29 09:24:06;;;;;;;12.50;12.00;;;21.30;99.90;;;;;;5042213;28;21019;-68
2023/05/29 09:26:34;;;;;;;12.93;12.33;;;20.60;99.90;;;;;;5036665;28;20930;-68
2023/05/29 09:29:02;;;;;;;12.90;12.30;;;21.20;99.90;;;;;;5029206;28;20484;-68
2023/05/29 09:31:30;;;;;;;13.00;12.40;;;21.70;99.90;;;;;;5043162;28;20654;-68
2023/05/29 09:34:02;;;;;;;12.80;12.20;;;21.80;99.90;;;;;;5041406;28;20961;-68
2023/05/29 09:36:29;;;;;;;12.93;12.37;;;21.70;99.90;;;;;;5040421;28;20857;-68
2023/05/29 09:38:56;;;;;;;13.33;12.73;;;21.40;99.90;;;;;;5042650;28;20735;-68
2023/05/29 09:41:25;;;;;;;13.00;12.47;;;21.20;99.90;;;;;;5031985;28;20658;-68
2023/05/29 09:43:53;;;;;;;14.93;13.60;;;21.50;99.90;;;;;;5030742;28;20463;-68
2023/05/29 09:46:20;;;;;;;13.20;12.60;;;21.20;99.90;;;;;;5037643;28;20827;-68
2023/05/29 09:48:47;;;;;;;14.40;13.10;;;21.30;99.90;;;;;;5034078;28;20457;-68
2023/05/29 09:51:21;;;;;;;13.93;13.33;;;21.70;99.90;;;;;;5035214;28;20936;-68
2023/05/29 09:53:50;;;;;;;12.80;12.30;;;21.70;99.90;;;;;;5035244;28;20504;-68
2023/05/29 09:56:18;;;;;;;14.80;13.90;;;21.60;99.90;;;;;;5035090;28;20464;-68
2023/05/29 09:58:47;;;;;;;12.50;12.00;;;22.30;99.90;;;;;;5034888;28;20550;-68
2023/05/29 10:01:15;;;;;;;14.70;13.83;;;22.30;99.90;;;;;;5044203;28;20822;-68
2023/05/29 10:03:42;;;;;;;14.27;13.37;;;22.70;99.90;;;;;;5038271;28;20487;-68
2023/05/29 10:06:13;;;;;;;14.23;13.17;;;23.70;99.90;;;;;;5038958;28;20531;-68
2023/05/29 10:08:45;;;;;;;14.00;13.27;;;23.20;99.90;;;;;;5038611;28;20846;-68
2023/05/29 10:11:15;;;;;;;14.13;13.30;;;23.40;99.30;;;;;;5044552;28;20479;-68
2023/05/29 10:13:48;;;;;;;19.93;14.77;;;23.00;99.70;;;;;;5033995;28;20826;-69
2023/05/29 10:16:18;;;;;;;13.77;13.17;;;23.60;98.90;;;;;;5040155;28;20464;-68
2023/05/29 10:18:49;;;;;;;13.13;12.57;;;23.60;99.90;;;;;;5033817;28;20472;-68
2023/05/29 10:21:16;;;;;;;12.67;12.17;;;24.10;99.00;;;;;;5038794;28;20807;-69
2023/05/29 10:23:48;;;;;;;13.00;12.50;;;23.80;98.40;;;;;;5032015;28;20488;-68
2023/05/29 10:26:21;;;;;;;14.40;13.73;;;24.00;98.50;;;;;;5032729;28;21071;-68
2023/05/29 10:28:54;;;;;;;13.80;13.07;;;23.60;97.30;;;;;;5037343;28;20479;-68
2023/05/29 10:31:30;;;;;;;13.73;13.03;;;23.90;96.80;;;;;;5035085;28;20475;-68
2023/05/29 10:34:08;;;;;;;12.73;12.23;;;24.20;97.70;;;;;;5032842;28;20471;-68
2023/05/29 10:36:41;;;;;;;14.50;13.57;;;24.00;96.30;;;;;;5044705;28;20503;-69
2023/05/29 10:39:08;;;;;;;13.37;12.77;;;22.70;97.90;;;;;;5031750;28;20494;-68
2023/05/29 10:41:39;;;;;;;15.00;14.20;;;22.50;98.40;;;;;;5037517;28;20457;-68
2023/05/29 10:44:39;;;;;;;16.90;15.90;;;23.00;97.50;;;;;;5042130;28;20955;-68
2023/05/29 10:47:10;;;;;;;15.10;14.10;;;22.80;97.30;;;;;;5035064;28;20959;-68
2023/05/29 10:49:38;;;;;;;14.30;12.97;;;22.90;97.80;;;;;;5040449;28;20461;-68
2023/05/29 10:52:06;;;;;;;13.10;12.60;;;23.30;97.70;;;;;;5048328;28;20448;-68
2023/05/29 10:54:50;;;;;;;12.90;12.40;;;24.20;97.40;;;;;;5041252;28;20500;-68
2023/05/29 10:57:18;;;;;;;13.10;12.40;;;24.20;96.80;;;;;;5040061;28;20642;-68
2023/05/29 10:59:46;;;;;;;12.83;12.00;;;24.80;95.70;;;;;;5046166;28;20460;-68
2023/05/29 11:02:20;;;;;;;13.43;12.90;;;24.70;95.40;;;;;;5041761;28;20460;-68
2023/05/29 11:05:05;;;;;;;12.80;12.20;;;24.20;96.10;;;;;;5041309;28;20465;-69
2023/05/29 11:07:51;;;;;;;14.33;13.33;;;23.90;95.70;;;;;;5035251;28;20496;-68
2023/05/29 11:10:17;;;;;;;13.53;12.93;;;23.20;95.70;;;;;;5034025;28;20515;-68
2023/05/29 11:13:05;;;;;;;12.97;12.33;;;23.40;95.80;;;;;;5034213;28;20509;-68
2023/05/29 11:15:32;;;;;;;13.57;12.73;;;23.80;95.00;;;;;;5038017;28;20542;-68
2023/05/29 11:18:07;;;;;;;15.37;14.27;;;24.50;94.90;;;;;;5041501;28;20456;-68
2023/05/29 11:20:38;;;;;;;13.23;12.53;;;24.20;94.90;;;;;;5033632;28;20562;-68
2023/05/29 11:23:08;;;;;;;14.20;13.47;;;24.30;94.10;;;;;;5033363;28;20543;-68
2023/05/29 11:25:37;;;;;;;12.70;12.20;;;24.00;93.70;;;;;;5028884;28;21110;-68
2023/05/29 11:28:10;;;;;;;16.60;15.50;;;24.10;94.00;;;;;;5034282;28;20464;-68
2023/05/29 11:30:45;;;;;;;15.07;14.07;;;24.70;93.20;;;;;;5032301;28;20960;-68
2023/05/29 11:33:24;;;;;;;14.60;13.83;;;25.10;92.30;;;;;;5034363;28;20510;-68
2023/05/29 11:35:57;;;;;;;13.53;13.03;;;25.20;92.20;;;;;;5042724;28;20578;-68
2023/05/29 11:38:24;;;;;;;14.17;13.47;;;25.60;92.30;;;;;;5029293;28;20476;-69
2023/05/29 11:40:51;;;;;;;15.07;14.47;;;26.20;91.10;;;;;;5033128;28;20763;-69
2023/05/29 11:43:18;;;;;;;14.40;13.80;;;26.70;91.60;;;;;;5027452;28;20853;-70
2023/05/29 11:45:45;;;;;;;14.70;14.00;;;26.20;90.00;;;;;;5032206;28;20594;-68
2023/05/29 11:48:12;;;;;;;15.00;14.10;;;25.90;90.00;;;;;;5031572;28;21653;-68
2023/05/29 11:50:43;;;;;;;14.27;13.67;;;25.50;88.60;;;;;;5035997;28;20559;-68
2023/05/29 11:53:13;;;;;;;14.73;13.93;;;25.20;90.40;;;;;;5033512;28;20521;-69
2023/05/29 11:55:39;;;;;;;14.00;13.30;;;25.80;90.20;;;;;;5038698;28;20487;-69
2023/05/29 11:58:06;;;;;;;14.80;14.20;;;26.00;88.90;;;;;;5033218;28;20456;-69
2023/05/29 12:00:34;;;;;;;14.17;13.57;;;26.30;89.00;;;;;;5034424;28;21129;-68
2023/05/29 12:03:03;;;;;;;15.00;14.20;;;26.60;89.10;;;;;;5035682;28;20537;-68
2023/05/29 12:05:31;;;;;;;15.17;14.27;;;26.40;90.20;;;;;;5033048;28;20469;-68
2023/05/29 12:08:01;;;;;;;13.80;13.30;;;26.70;86.10;;;;;;5033627;28;20471;-68
2023/05/29 12:10:29;;;;;;;17.07;15.70;;;26.40;86.80;;;;;;5035627;28;20563;-68
2023/05/29 12:12:58;;;;;;;19.17;15.90;;;26.00;86.50;;;;;;5035989;28;20772;-68
2023/05/29 12:15:25;;;;;;;14.70;14.00;;;26.20;85.20;;;;;;5037482;28;20470;-68
2023/05/29 12:17:53;;;;;;;13.97;13.37;;;26.70;85.00;;;;;;5038321;28;20464;-68
2023/05/29 12:20:26;;;;;;;14.57;13.67;;;27.50;87.30;;;;;;5044433;28;20495;-68
2023/05/29 12:22:53;;;;;;;15.60;14.80;;;27.10;86.00;;;;;;5039567;28;20460;-68
2023/05/29 12:25:21;;;;;;;15.17;14.47;;;27.00;84.20;;;;;;5042574;28;20966;-69
2023/05/29 12:27:49;;;;;;;15.20;14.40;;;27.60;83.90;;;;;;5041123;28;20755;-68
2023/05/29 12:30:21;;;;;;;15.10;14.50;;;26.60;84.70;;;;;;5041797;28;21017;-68
2023/05/29 12:32:49;;;;;;;13.83;13.30;;;26.10;84.50;;;;;;5041170;28;20459;-69
2023/05/29 12:35:19;;;;;;;14.17;13.47;;;26.00;85.20;;;;;;5038962;28;20463;-68
2023/05/29 12:37:47;;;;;;;14.80;14.13;;;26.60;86.80;;;;;;5035348;28;20460;-69